T'aipeihsien, Taiwan
Current Conditions -  °F | °C
As of 4:00 AM on Saturday 01 Nov 2014 (Local Time) from RCSS Reporting Station
Few Clouds Few Clouds  
Wind Chill: 73°   Ceiling: Unl
Heat Index: 73°   Visibility: 6mi
Dew Point: 64°   Wind: 6mph
Humidity: 73%   Direction: 10°N
Pressure: 29.88"   Gusts: NA
Location:  25.05°N, 121.5°E
Report Text: RCSS 312000Z 01005KT 9999 FEW025 23/18 Q1012 NOSIG RMK A2991
Loading
Personal Weather Stations






























Interactive Weather Map
Tropical Storm Tracking
New forecast layout! Learn more

10-Day Weather Forecast

Advertisements
Track Severe Weather on mobile